sensor_id;sensor_type;location;lat;lon;timestamp;pressure;altitude;pressure_sealevel;temperature;humidity
70314;BME280;57725;47.526;18.986;2022-12-18T00:01:31;101176.81;;;3.48;92.50
70314;BME280;57725;47.526;18.986;2022-12-18T00:03:57;101179.44;;;3.51;92.24
70314;BME280;57725;47.526;18.986;2022-12-18T00:06:26;101185.44;;;3.50;92.20
70314;BME280;57725;47.526;18.986;2022-12-18T00:08:52;101188.88;;;3.49;92.33
70314;BME280;57725;47.526;18.986;2022-12-18T00:11:23;101201.81;;;3.49;92.02
70314;BME280;57725;47.526;18.986;2022-12-18T00:13:50;101204.41;;;3.49;92.00
70314;BME280;57725;47.526;18.986;2022-12-18T00:16:20;101200.06;;;3.42;92.17
70314;BME280;57725;47.526;18.986;2022-12-18T00:18:47;101213.00;;;3.48;92.45
70314;BME280;57725;47.526;18.986;2022-12-18T00:21:13;101219.03;;;3.47;92.02
70314;BME280;57725;47.526;18.986;2022-12-18T00:23:41;101222.47;;;3.48;92.14
70314;BME280;57725;47.526;18.986;2022-12-18T00:26:13;101231.09;;;3.47;92.12
70314;BME280;57725;47.526;18.986;2022-12-18T00:28:40;101240.59;;;3.48;92.26
70314;BME280;57725;47.526;18.986;2022-12-18T00:31:07;101238.88;;;3.45;92.28
70314;BME280;57725;47.526;18.986;2022-12-18T00:33:34;101251.78;;;3.47;92.25
70314;BME280;57725;47.526;18.986;2022-12-18T00:36:04;101244.91;;;3.46;92.31
70314;BME280;57725;47.526;18.986;2022-12-18T00:38:31;101243.16;;;3.43;91.99
70314;BME280;57725;47.526;18.986;2022-12-18T00:41:04;101251.78;;;3.45;92.17
70314;BME280;57725;47.526;18.986;2022-12-18T00:43:30;101237.97;;;3.43;91.98
70314;BME280;57725;47.526;18.986;2022-12-18T00:45:57;101243.16;;;3.43;92.29
70314;BME280;57725;47.526;18.986;2022-12-18T00:48:23;101247.44;;;3.41;92.08
70314;BME280;57725;47.526;18.986;2022-12-18T00:50:49;101252.63;;;3.43;91.76
70314;BME280;57725;47.526;18.986;2022-12-18T00:53:15;101252.63;;;3.43;91.75
70314;BME280;57725;47.526;18.986;2022-12-18T00:55:41;101257.78;;;3.43;92.36
70314;BME280;57725;47.526;18.986;2022-12-18T00:58:07;101256.03;;;3.40;92.20
70314;BME280;57725;47.526;18.986;2022-12-18T01:00:33;101267.28;;;3.42;92.24
70314;BME280;57725;47.526;18.986;2022-12-18T01:02:59;101272.44;;;3.42;92.08
70314;BME280;57725;47.526;18.986;2022-12-18T01:05:25;101271.56;;;3.42;92.12
70314;BME280;57725;47.526;18.986;2022-12-18T01:07:51;101283.63;;;3.41;92.22
70314;BME280;57725;47.526;18.986;2022-12-18T01:10:16;101281.03;;;3.40;92.30
70314;BME280;57725;47.526;18.986;2022-12-18T01:12:44;101281.03;;;3.40;92.05
70314;BME280;57725;47.526;18.986;2022-12-18T01:15:11;101284.47;;;3.40;92.38
70314;BME280;57725;47.526;18.986;2022-12-18T01:17:37;101287.91;;;3.39;92.59
70314;BME280;57725;47.526;18.986;2022-12-18T01:20:06;101289.63;;;3.39;92.22
70314;BME280;57725;47.526;18.986;2022-12-18T01:22:32;101290.47;;;3.36;92.18
70314;BME280;57725;47.526;18.986;2022-12-18T01:24:57;101297.38;;;3.37;92.08
70314;BME280;57725;47.526;18.986;2022-12-18T01:27:22;101297.38;;;3.37;92.18
70314;BME280;57725;47.526;18.986;2022-12-18T01:29:49;101288.72;;;3.35;92.03
70314;BME280;57725;47.526;18.986;2022-12-18T01:32:14;101292.19;;;3.36;91.98
70314;BME280;57725;47.526;18.986;2022-12-18T01:34:40;101293.06;;;3.38;92.15
70314;BME280;57725;47.526;18.986;2022-12-18T01:37:05;101299.94;;;3.36;92.18
70314;BME280;57725;47.526;18.986;2022-12-18T01:39:31;101297.38;;;3.34;91.71
70314;BME280;57725;47.526;18.986;2022-12-18T01:42:00;101305.09;;;3.36;91.93
70314;BME280;57725;47.526;18.986;2022-12-18T01:44:57;101313.72;;;3.36;92.17
70314;BME280;57725;47.526;18.986;2022-12-18T01:47:27;101309.44;;;3.34;92.06
70314;BME280;57725;47.526;18.986;2022-12-18T01:49:55;101314.59;;;3.34;91.92
70314;BME280;57725;47.526;18.986;2022-12-18T01:52:21;101318.06;;;3.34;92.20
70314;BME280;57725;47.526;18.986;2022-12-18T01:54:48;101315.44;;;3.33;92.27
70314;BME280;57725;47.526;18.986;2022-12-18T01:57:15;101307.66;;;3.31;92.21
70314;BME280;57725;47.526;18.986;2022-12-18T01:59:45;101315.44;;;3.33;92.10
70314;BME280;57725;47.526;18.986;2022-12-18T02:02:14;101321.47;;;3.33;92.22
70314;BME280;57725;47.526;18.986;2022-12-18T02:04:40;101318.88;;;3.32;92.05
70314;BME280;57725;47.526;18.986;2022-12-18T02:09:47;101332.69;;;3.32;91.67
70314;BME280;57725;47.526;18.986;2022-12-18T02:12:16;101334.38;;;3.32;92.02
70314;BME280;57725;47.526;18.986;2022-12-18T02:17:22;101343.00;;;3.31;92.30
70314;BME280;57725;47.526;18.986;2022-12-18T02:20:25;101344.72;;;3.30;91.94
70314;BME280;57725;47.526;18.986;2022-12-18T02:26:00;101351.59;;;3.30;91.95
70314;BME280;57725;47.526;18.986;2022-12-18T02:28:31;101351.56;;;3.28;91.96
70314;BME280;57725;47.526;18.986;2022-12-18T02:30:59;101358.47;;;3.29;92.04
70314;BME280;57725;47.526;18.986;2022-12-18T02:33:27;101352.41;;;3.25;92.13
70314;BME280;57725;47.526;18.986;2022-12-18T02:35:56;101351.53;;;3.25;92.33
70314;BME280;57725;47.526;18.986;2022-12-18T02:38:24;101352.44;;;3.27;92.09
70314;BME280;57725;47.526;18.986;2022-12-18T02:40:51;101362.75;;;3.27;91.93
70314;BME280;57725;47.526;18.986;2022-12-18T02:43:21;101364.47;;;3.25;91.96
70314;BME280;57725;47.526;18.986;2022-12-18T02:45:52;101361.03;;;3.26;92.12
70314;BME280;57725;47.526;18.986;2022-12-18T02:48:23;101361.00;;;3.24;91.96
70314;BME280;57725;47.526;18.986;2022-12-18T02:51:14;101373.09;;;3.25;91.96
70314;BME280;57725;47.526;18.986;2022-12-18T02:53:58;101363.59;;;3.24;91.79
70314;BME280;57725;47.526;18.986;2022-12-18T02:56:35;101373.94;;;3.24;91.92
70314;BME280;57725;47.526;18.986;2022-12-18T02:59:13;101370.50;;;3.22;91.66
70314;BME280;57725;47.526;18.986;2022-12-18T03:02:08;101381.66;;;3.21;92.11
70314;BME280;57725;47.526;18.986;2022-12-18T03:04:46;101385.13;;;3.23;91.92
70314;BME280;57725;47.526;18.986;2022-12-18T03:07:36;101373.00;;;3.16;92.08
70314;BME280;57725;47.526;18.986;2022-12-18T03:10:05;101379.09;;;3.21;92.07
70314;BME280;57725;47.526;18.986;2022-12-18T03:12:35;101386.81;;;3.20;91.75
70314;BME280;57725;47.526;18.986;2022-12-18T03:15:29;101395.44;;;3.20;92.05
70314;BME280;57725;47.526;18.986;2022-12-18T03:18:03;101391.09;;;3.18;91.92
70314;BME280;57725;47.526;18.986;2022-12-18T03:20:31;101399.75;;;3.20;92.00
70314;BME280;57725;47.526;18.986;2022-12-18T03:23:11;101402.31;;;3.20;91.94
70314;BME280;57725;47.526;18.986;2022-12-18T03:25:43;101404.06;;;3.21;92.07
70314;BME280;57725;47.526;18.986;2022-12-18T03:28:15;101403.16;;;3.19;91.96
70314;BME280;57725;47.526;18.986;2022-12-18T03:30:44;101408.34;;;3.19;91.73
70314;BME280;57725;47.526;18.986;2022-12-18T03:33:18;101419.56;;;3.21;92.00
70314;BME280;57725;47.526;18.986;2022-12-18T03:35:45;101420.38;;;3.17;92.01
70314;BME280;57725;47.526;18.986;2022-12-18T03:38:11;101420.41;;;3.18;92.04
70314;BME280;57725;47.526;18.986;2022-12-18T03:43:38;101428.97;;;3.16;92.19
70314;BME280;57725;47.526;18.986;2022-12-18T03:49:26;101445.34;;;3.16;91.72
70314;BME280;57725;47.526;18.986;2022-12-18T03:54:34;101432.41;;;3.15;91.70
70314;BME280;57725;47.526;18.986;2022-12-18T03:57:05;101430.69;;;3.15;91.79
70314;BME280;57725;47.526;18.986;2022-12-18T03:59:32;101428.09;;;3.14;91.79
70314;BME280;57725;47.526;18.986;2022-12-18T04:02:00;101441.03;;;3.15;91.83
70314;BME280;57725;47.526;18.986;2022-12-18T04:04:29;101443.59;;;3.15;91.43
70314;BME280;57725;47.526;18.986;2022-12-18T04:06:57;101440.97;;;3.12;91.89
70314;BME280;57725;47.526;18.986;2022-12-18T04:09:23;101437.53;;;3.12;91.80
70314;BME280;57725;47.526;18.986;2022-12-18T04:11:51;101436.69;;;3.11;91.84
70314;BME280;57725;47.526;18.986;2022-12-18T04:14:16;101443.59;;;3.14;91.91
70314;BME280;57725;47.526;18.986;2022-12-18T04:16:42;101442.69;;;3.12;91.74
70314;BME280;57725;47.526;18.986;2022-12-18T04:19:07;101448.72;;;3.12;91.68
70314;BME280;57725;47.526;18.986;2022-12-18T04:21:32;101453.91;;;3.12;91.78
70314;BME280;57725;47.526;18.986;2022-12-18T04:23:58;101451.31;;;3.12;91.70
70314;BME280;57725;47.526;18.986;2022-12-18T04:26:25;101454.78;;;3.11;91.81
70314;BME280;57725;47.526;18.986;2022-12-18T04:28:51;101442.69;;;3.09;91.68
70314;BME280;57725;47.526;18.986;2022-12-18T04:31:16;101445.28;;;3.10;91.79
70314;BME280;57725;47.526;18.986;2022-12-18T04:33:41;101453.03;;;3.10;91.81
70314;BME280;57725;47.526;18.986;2022-12-18T04:36:07;101458.19;;;3.09;92.18
70314;BME280;57725;47.526;18.986;2022-12-18T04:38:32;101463.38;;;3.10;91.56
70314;BME280;57725;47.526;18.986;2022-12-18T04:40:58;101465.06;;;3.08;91.37
70314;BME280;57725;47.526;18.986;2022-12-18T04:43:23;101463.25;;;3.03;91.73
70314;BME280;57725;47.526;18.986;2022-12-18T04:45:49;101476.25;;;3.07;91.55
70314;BME280;57725;47.526;18.986;2022-12-18T04:48:14;101486.59;;;3.07;91.70
70314;BME280;57725;47.526;18.986;2022-12-18T04:50:49;101489.19;;;3.09;91.22
70314;BME280;57725;47.526;18.986;2022-12-18T04:53:15;101493.50;;;3.08;92.04
70314;BME280;57725;47.526;18.986;2022-12-18T04:55:40;101491.78;;;3.09;91.50
70314;BME280;57725;47.526;18.986;2022-12-18T04:58:05;101489.16;;;3.07;91.58
70314;BME280;57725;47.526;18.986;2022-12-18T05:00:31;101495.22;;;3.08;91.65
70314;BME280;57725;47.526;18.986;2022-12-18T05:03:09;101499.47;;;3.06;91.59
70314;BME280;57725;47.526;18.986;2022-12-18T05:05:35;101502.97;;;3.08;91.91
70314;BME280;57725;47.526;18.986;2022-12-18T05:08:00;101498.63;;;3.05;91.55
70314;BME280;57725;47.526;18.986;2022-12-18T05:10:26;101505.50;;;3.05;91.76
70314;BME280;57725;47.526;18.986;2022-12-18T05:12:54;101515.84;;;3.05;91.69
70314;BME280;57725;47.526;18.986;2022-12-18T05:15:30;101510.66;;;3.05;91.72
70314;BME280;57725;47.526;18.986;2022-12-18T05:17:57;101504.59;;;3.03;91.40
70314;BME280;57725;47.526;18.986;2022-12-18T05:20:23;101501.16;;;3.04;91.52
70314;BME280;57725;47.526;18.986;2022-12-18T05:22:48;101505.50;;;3.05;91.45
70314;BME280;57725;47.526;18.986;2022-12-18T05:25:14;101509.75;;;3.03;91.56
70314;BME280;57725;47.526;18.986;2022-12-18T05:27:40;101516.66;;;3.02;91.35
70314;BME280;57725;47.526;18.986;2022-12-18T05:30:06;101518.38;;;3.02;91.69
70314;BME280;57725;47.526;18.986;2022-12-18T05:32:31;101517.53;;;3.03;91.39
70314;BME280;57725;47.526;18.986;2022-12-18T05:34:57;101526.13;;;3.02;91.55
70314;BME280;57725;47.526;18.986;2022-12-18T05:37:24;101526.13;;;3.02;91.44
70314;BME280;57725;47.526;18.986;2022-12-18T05:39:50;101522.66;;;3.01;91.49
70314;BME280;57725;47.526;18.986;2022-12-18T05:42:15;101529.56;;;2.99;91.70
70314;BME280;57725;47.526;18.986;2022-12-18T05:44:43;101537.28;;;3.01;91.70
70314;BME280;57725;47.526;18.986;2022-12-18T05:47:11;101534.69;;;2.98;91.46
70314;BME280;57725;47.526;18.986;2022-12-18T05:49:36;101540.72;;;2.98;91.09
70314;BME280;57725;47.526;18.986;2022-12-18T05:52:02;101550.22;;;2.99;91.55
70314;BME280;57725;47.526;18.986;2022-12-18T05:54:27;101542.41;;;2.96;91.59
70314;BME280;57725;47.526;18.986;2022-12-18T05:56:53;101542.41;;;2.96;91.60
70314;BME280;57725;47.526;18.986;2022-12-18T05:59:19;101541.56;;;2.97;91.29
70314;BME280;57725;47.526;18.986;2022-12-18T06:01:44;101549.34;;;2.99;91.42
70314;BME280;57725;47.526;18.986;2022-12-18T06:04:09;101540.59;;;2.90;91.52
70314;BME280;57725;47.526;18.986;2022-12-18T06:06:35;101551.00;;;2.95;91.39
70314;BME280;57725;47.526;18.986;2022-12-18T06:09:00;101558.78;;;2.97;91.50
70314;BME280;57725;47.526;18.986;2022-12-18T06:11:26;101571.69;;;2.97;91.47
70314;BME280;57725;47.526;18.986;2022-12-18T06:13:53;101563.91;;;2.94;91.61
70314;BME280;57725;47.526;18.986;2022-12-18T06:16:19;101569.13;;;2.97;91.41
70314;BME280;57725;47.526;18.986;2022-12-18T06:18:44;101570.84;;;2.96;91.39
70314;BME280;57725;47.526;18.986;2022-12-18T06:21:10;101563.91;;;2.94;91.45
70314;BME280;57725;47.526;18.986;2022-12-18T06:23:35;101579.44;;;2.95;91.38
70314;BME280;57725;47.526;18.986;2022-12-18T06:26:08;101584.59;;;2.95;91.50
70314;BME280;57725;47.526;18.986;2022-12-18T06:28:34;101593.16;;;2.92;91.27
70314;BME280;57725;47.526;18.986;2022-12-18T06:31:02;101586.28;;;2.93;91.82
70314;BME280;57725;47.526;18.986;2022-12-18T06:33:28;101594.00;;;2.91;91.30
70314;BME280;57725;47.526;18.986;2022-12-18T06:35:54;101588.81;;;2.90;91.29
70314;BME280;57725;47.526;18.986;2022-12-18T06:38:20;101598.31;;;2.92;91.17
70314;BME280;57725;47.526;18.986;2022-12-18T06:40:45;101602.63;;;2.92;91.71
70314;BME280;57725;47.526;18.986;2022-12-18T06:43:10;101609.53;;;2.93;91.29
70314;BME280;57725;47.526;18.986;2022-12-18T06:45:36;101612.09;;;2.91;91.21
70314;BME280;57725;47.526;18.986;2022-12-18T06:48:01;101605.19;;;2.92;91.35
70314;BME280;57725;47.526;18.986;2022-12-18T06:50:26;101608.63;;;2.91;91.24
70314;BME280;57725;47.526;18.986;2022-12-18T06:52:52;101600.84;;;2.89;91.29
70314;BME280;57725;47.526;18.986;2022-12-18T06:55:19;101606.84;;;2.88;91.34
70314;BME280;57725;47.526;18.986;2022-12-18T06:57:47;101612.03;;;2.87;91.45
70314;BME280;57725;47.526;18.986;2022-12-18T07:00:13;101624.97;;;2.90;91.47
70314;BME280;57725;47.526;18.986;2022-12-18T07:02:38;101625.81;;;2.89;91.30
70314;BME280;57725;47.526;18.986;2022-12-18T07:05:07;101625.78;;;2.86;91.55
70314;BME280;57725;47.526;18.986;2022-12-18T07:07:34;101622.38;;;2.87;91.15
70314;BME280;57725;47.526;18.986;2022-12-18T07:09:59;101635.28;;;2.87;91.45
70314;BME280;57725;47.526;18.986;2022-12-18T07:12:27;101631.84;;;2.88;91.31
70314;BME280;57725;47.526;18.986;2022-12-18T07:14:52;101645.59;;;2.88;91.34
70314;BME280;57725;47.526;18.986;2022-12-18T07:17:20;101635.09;;;2.78;91.24
70314;BME280;57725;47.526;18.986;2022-12-18T07:19:45;101656.81;;;2.87;91.40
70314;BME280;57725;47.526;18.986;2022-12-18T07:22:11;101655.91;;;2.85;91.16
70314;BME280;57725;47.526;18.986;2022-12-18T07:24:38;101655.06;;;2.86;91.20
70314;BME280;57725;47.526;18.986;2022-12-18T07:27:04;101669.72;;;2.87;91.27
70314;BME280;57725;47.526;18.986;2022-12-18T07:29:29;101675.75;;;2.86;91.16
70314;BME280;57725;47.526;18.986;2022-12-18T07:31:57;101680.88;;;2.85;91.48
70314;BME280;57725;47.526;18.986;2022-12-18T07:34:22;101683.50;;;2.86;91.48
70314;BME280;57725;47.526;18.986;2022-12-18T07:36:48;101680.00;;;2.84;91.50
70314;BME280;57725;47.526;18.986;2022-12-18T07:39:13;101682.63;;;2.86;91.37
70314;BME280;57725;47.526;18.986;2022-12-18T07:41:39;101686.88;;;2.84;91.58
70314;BME280;57725;47.526;18.986;2022-12-18T07:44:11;101694.66;;;2.85;91.39
70314;BME280;57725;47.526;18.986;2022-12-18T07:46:41;101692.06;;;2.84;91.51
70314;BME280;57725;47.526;18.986;2022-12-18T07:49:07;101697.25;;;2.85;91.50
70314;BME280;57725;47.526;18.986;2022-12-18T07:51:32;101705.81;;;2.83;91.35
70314;BME280;57725;47.526;18.986;2022-12-18T07:53:57;101711.00;;;2.84;91.07
70314;BME280;57725;47.526;18.986;2022-12-18T07:56:23;101715.28;;;2.84;91.82
70314;BME280;57725;47.526;18.986;2022-12-18T07:58:48;101717.88;;;2.84;91.47
70314;BME280;57725;47.526;18.986;2022-12-18T08:01:13;101727.34;;;2.83;91.35
70314;BME280;57725;47.526;18.986;2022-12-18T08:03:40;101725.63;;;2.84;91.47
70314;BME280;57725;47.526;18.986;2022-12-18T08:06:11;101731.63;;;2.83;91.54
70314;BME280;57725;47.526;18.986;2022-12-18T08:08:37;101719.53;;;2.80;91.51
70314;BME280;57725;47.526;18.986;2022-12-18T08:11:02;101732.47;;;2.82;91.65
70314;BME280;57725;47.526;18.986;2022-12-18T08:13:30;101734.22;;;2.83;91.55
70314;BME280;57725;47.526;18.986;2022-12-18T08:16:04;101739.38;;;2.83;91.29
70314;BME280;57725;47.526;18.986;2022-12-18T08:18:32;101726.31;;;2.74;91.50
70314;BME280;57725;47.526;18.986;2022-12-18T08:20:57;101735.06;;;2.82;91.18
70314;BME280;57725;47.526;18.986;2022-12-18T08:23:23;101737.66;;;2.82;91.45
70314;BME280;57725;47.526;18.986;2022-12-18T08:25:48;101743.69;;;2.82;91.38
70314;BME280;57725;47.526;18.986;2022-12-18T08:28:13;101743.66;;;2.81;91.34
70314;BME280;57725;47.526;18.986;2022-12-18T08:30:39;101746.22;;;2.81;91.61
70314;BME280;57725;47.526;18.986;2022-12-18T08:33:05;101738.47;;;2.81;91.59
70314;BME280;57725;47.526;18.986;2022-12-18T08:35:34;101743.59;;;2.78;91.46
70314;BME280;57725;47.526;18.986;2022-12-18T08:38:00;101741.06;;;2.81;91.42
70314;BME280;57725;47.526;18.986;2022-12-18T08:40:25;101747.06;;;2.80;91.68
70314;BME280;57725;47.526;18.986;2022-12-18T08:42:50;101729.72;;;2.73;91.80
70314;BME280;57725;47.526;18.986;2022-12-18T08:45:34;101744.50;;;2.80;91.65
70314;BME280;57725;47.526;18.986;2022-12-18T08:48:00;101746.19;;;2.79;91.56
70314;BME280;57725;47.526;18.986;2022-12-18T08:50:25;101741.88;;;2.78;91.53
70314;BME280;57725;47.526;18.986;2022-12-18T08:52:50;101742.75;;;2.79;91.64
70314;BME280;57725;47.526;18.986;2022-12-18T08:55:16;101742.72;;;2.77;91.67
70314;BME280;57725;47.526;18.986;2022-12-18T08:57:41;101742.72;;;2.77;91.34
70314;BME280;57725;47.526;18.986;2022-12-18T09:00:07;101745.31;;;2.79;91.77
70314;BME280;57725;47.526;18.986;2022-12-18T09:02:35;101753.06;;;2.79;91.67
70314;BME280;57725;47.526;18.986;2022-12-18T09:05:00;101765.16;;;2.80;91.82
70314;BME280;57725;47.526;18.986;2022-12-18T09:07:25;101768.56;;;2.79;92.05
70314;BME280;57725;47.526;18.986;2022-12-18T09:09:51;101774.56;;;2.78;91.87
70314;BME280;57725;47.526;18.986;2022-12-18T09:12:16;101781.44;;;2.77;91.73
70314;BME280;57725;47.526;18.986;2022-12-18T09:14:41;101784.03;;;2.77;91.78
70314;BME280;57725;47.526;18.986;2022-12-18T09:17:07;101793.53;;;2.78;91.71
70314;BME280;57725;47.526;18.986;2022-12-18T09:19:32;101788.38;;;2.78;91.82
70314;BME280;57725;47.526;18.986;2022-12-18T09:21:57;101769.41;;;2.76;91.65
70314;BME280;57725;47.526;18.986;2022-12-18T09:24:25;101778.88;;;2.76;91.77
70314;BME280;57725;47.526;18.986;2022-12-18T09:26:53;101780.63;;;2.78;91.50
70314;BME280;57725;47.526;18.986;2022-12-18T09:29:19;101777.16;;;2.76;91.97
70314;BME280;57725;47.526;18.986;2022-12-18T09:31:44;101783.19;;;2.78;91.50
70314;BME280;57725;47.526;18.986;2022-12-18T09:34:09;101772.88;;;2.77;91.88
70314;BME280;57725;47.526;18.986;2022-12-18T09:36:35;101780.63;;;2.78;91.74
70314;BME280;57725;47.526;18.986;2022-12-18T09:39:00;101766.84;;;2.76;91.68
70314;BME280;57725;47.526;18.986;2022-12-18T09:42:01;101767.69;;;2.78;91.62
70314;BME280;57725;47.526;18.986;2022-12-18T09:44:34;101778.03;;;2.78;91.62
70314;BME280;57725;47.526;18.986;2022-12-18T09:47:16;101781.44;;;2.77;91.94
70314;BME280;57725;47.526;18.986;2022-12-18T09:49:45;101772.88;;;2.77;91.88
70314;BME280;57725;47.526;18.986;2022-12-18T09:52:17;101772.00;;;2.78;91.76
70314;BME280;57725;47.526;18.986;2022-12-18T09:54:50;101771.97;;;2.75;92.17
70314;BME280;57725;47.526;18.986;2022-12-18T09:57:20;101777.13;;;2.75;91.94
70314;BME280;57725;47.526;18.986;2022-12-18T10:00:00;101783.19;;;2.77;91.88
70314;BME280;57725;47.526;18.986;2022-12-18T10:02:30;101769.31;;;2.72;92.09
70314;BME280;57725;47.526;18.986;2022-12-18T10:07:46;101772.88;;;2.77;91.80
70314;BME280;57725;47.526;18.986;2022-12-18T10:11:01;101767.69;;;2.77;91.94
70314;BME280;57725;47.526;18.986;2022-12-18T10:15:49;101771.06;;;2.73;92.06
70314;BME280;57725;47.526;18.986;2022-12-18T10:21:10;101761.63;;;2.75;91.95
70314;BME280;57725;47.526;18.986;2022-12-18T10:24:19;101763.38;;;2.76;91.83
70314;BME280;57725;47.526;18.986;2022-12-18T10:26:47;101769.38;;;2.75;91.98
70314;BME280;57725;47.526;18.986;2022-12-18T10:29:16;101756.50;;;2.76;92.03
70314;BME280;57725;47.526;18.986;2022-12-18T10:31:44;101758.19;;;2.74;92.15
70314;BME280;57725;47.526;18.986;2022-12-18T10:34:14;101756.44;;;2.73;91.67
70314;BME280;57725;47.526;18.986;2022-12-18T10:36:39;101764.25;;;2.76;92.24
70314;BME280;57725;47.526;18.986;2022-12-18T10:39:22;101759.00;;;2.73;91.72
70314;BME280;57725;47.526;18.986;2022-12-18T10:42:16;101764.22;;;2.75;92.26
70314;BME280;57725;47.526;18.986;2022-12-18T10:44:41;101764.13;;;2.70;91.97
70314;BME280;57725;47.526;18.986;2022-12-18T10:47:13;101761.63;;;2.75;92.23
70314;BME280;57725;47.526;18.986;2022-12-18T10:49:46;101751.25;;;2.73;92.11
70314;BME280;57725;47.526;18.986;2022-12-18T10:54:49;101765.06;;;2.74;91.88
70314;BME280;57725;47.526;18.986;2022-12-18T11:00:03;101752.13;;;2.74;92.41
70314;BME280;57725;47.526;18.986;2022-12-18T11:02:38;101759.91;;;2.75;92.18
70314;BME280;57725;47.526;18.986;2022-12-18T11:05:24;101748.69;;;2.73;92.16
70314;BME280;57725;47.526;18.986;2022-12-18T11:07:51;101746.13;;;2.75;92.27
70314;BME280;57725;47.526;18.986;2022-12-18T11:10:21;101751.28;;;2.75;91.92
70314;BME280;57725;47.526;18.986;2022-12-18T11:12:49;101740.06;;;2.73;92.42
70314;BME280;57725;47.526;18.986;2022-12-18T11:15:20;101738.34;;;2.73;92.19
70314;BME280;57725;47.526;18.986;2022-12-18T11:17:51;101734.91;;;2.73;92.18
70314;BME280;57725;47.526;18.986;2022-12-18T11:20:34;101741.84;;;2.75;92.33
70314;BME280;57725;47.526;18.986;2022-12-18T11:23:03;101739.22;;;2.74;92.19
70314;BME280;57725;47.526;18.986;2022-12-18T11:25:30;101744.41;;;2.75;92.29
70314;BME280;57725;47.526;18.986;2022-12-18T11:28:03;101747.84;;;2.74;92.36
70314;BME280;57725;47.526;18.986;2022-12-18T11:30:36;101743.56;;;2.75;91.82
70314;BME280;57725;47.526;18.986;2022-12-18T11:33:20;101747.00;;;2.75;92.21
70314;BME280;57725;47.526;18.986;2022-12-18T11:35:53;101733.16;;;2.72;91.93
70314;BME280;57725;47.526;18.986;2022-12-18T11:38:32;101736.63;;;2.74;92.39
70314;BME280;57725;47.526;18.986;2022-12-18T11:44:11;101729.72;;;2.73;92.38
70314;BME280;57725;47.526;18.986;2022-12-18T11:46:45;101726.31;;;2.74;92.28
70314;BME280;57725;47.526;18.986;2022-12-18T11:49:14;101731.47;;;2.74;92.59
70314;BME280;57725;47.526;18.986;2022-12-18T11:54:35;101730.53;;;2.70;92.32
70314;BME280;57725;47.526;18.986;2022-12-18T12:07:47;101715.91;;;2.71;92.34
70314;BME280;57725;47.526;18.986;2022-12-18T12:19:01;101723.69;;;2.72;92.36
70314;BME280;57725;47.526;18.986;2022-12-18T12:21:52;101720.25;;;2.72;92.18
70314;BME280;57725;47.526;18.986;2022-12-18T12:24:29;101722.84;;;2.73;92.39
70314;BME280;57725;47.526;18.986;2022-12-18T12:29:46;101724.56;;;2.73;92.43
70314;BME280;57725;47.526;18.986;2022-12-18T12:37:47;101721.16;;;2.74;92.25
70314;BME280;57725;47.526;18.986;2022-12-18T12:40:19;101719.41;;;2.73;92.32
70314;BME280;57725;47.526;18.986;2022-12-18T12:42:48;101725.44;;;2.73;92.29
70314;BME280;57725;47.526;18.986;2022-12-18T12:45:54;101739.22;;;2.74;92.46
70314;BME280;57725;47.526;18.986;2022-12-18T12:51:34;101739.19;;;2.72;92.30
70314;BME280;57725;47.526;18.986;2022-12-18T12:54:02;101750.34;;;2.71;92.73
70314;BME280;57725;47.526;18.986;2022-12-18T12:56:42;101750.41;;;2.73;92.33
70314;BME280;57725;47.526;18.986;2022-12-18T12:59:19;101753.78;;;2.70;92.55
70314;BME280;57725;47.526;18.986;2022-12-18T13:02:05;101761.59;;;2.73;92.48
70314;BME280;57725;47.526;18.986;2022-12-18T13:04:56;101756.41;;;2.72;92.27
70314;BME280;57725;47.526;18.986;2022-12-18T13:07:34;101765.00;;;2.72;92.30
70314;BME280;57725;47.526;18.986;2022-12-18T13:13:12;101765.88;;;2.73;92.13
70314;BME280;57725;47.526;18.986;2022-12-18T13:15:38;101783.13;;;2.74;92.52
70314;BME280;57725;47.526;18.986;2022-12-18T13:23:00;101768.44;;;2.71;92.18
70314;BME280;57725;47.526;18.986;2022-12-18T13:25:31;101772.88;;;2.78;92.21
70314;BME280;57725;47.526;18.986;2022-12-18T13:28:01;101779.88;;;2.84;91.69
70314;BME280;57725;47.526;18.986;2022-12-18T13:36:11;101790.97;;;2.80;91.83
70314;BME280;57725;47.526;18.986;2022-12-18T13:38:41;101789.19;;;2.77;91.87
70314;BME280;57725;47.526;18.986;2022-12-18T13:43:36;101783.13;;;2.74;92.25
70314;BME280;57725;47.526;18.986;2022-12-18T13:51:31;101802.97;;;2.75;92.27
70314;BME280;57725;47.526;18.986;2022-12-18T13:54:00;101802.09;;;2.74;92.50
70314;BME280;57725;47.526;18.986;2022-12-18T13:56:29;101797.78;;;2.75;92.42
70314;BME280;57725;47.526;18.986;2022-12-18T13:59:12;101796.03;;;2.74;92.25
70314;BME280;57725;47.526;18.986;2022-12-18T14:02:00;101805.50;;;2.73;92.15
70314;BME280;57725;47.526;18.986;2022-12-18T14:04:34;101793.41;;;2.71;92.26
70314;BME280;57725;47.526;18.986;2022-12-18T14:09:35;101801.19;;;2.72;92.30
70314;BME280;57725;47.526;18.986;2022-12-18T14:12:01;101804.53;;;2.68;92.49
70314;BME280;57725;47.526;18.986;2022-12-18T14:14:50;101808.06;;;2.72;92.36
70314;BME280;57725;47.526;18.986;2022-12-18T14:17:17;101808.88;;;2.71;92.52
70314;BME280;57725;47.526;18.986;2022-12-18T14:19:48;101812.38;;;2.73;92.27
70314;BME280;57725;47.526;18.986;2022-12-18T14:22:24;101808.00;;;2.70;92.31
70314;BME280;57725;47.526;18.986;2022-12-18T14:27:42;101817.53;;;2.73;92.34
70314;BME280;57725;47.526;18.986;2022-12-18T14:33:12;101819.25;;;2.72;92.15
70314;BME280;57725;47.526;18.986;2022-12-18T14:35:40;101823.56;;;2.72;92.41
70314;BME280;57725;47.526;18.986;2022-12-18T14:40:41;101831.28;;;2.72;92.28
70314;BME280;57725;47.526;18.986;2022-12-18T14:43:10;101832.06;;;2.68;91.91